Terminal Aerodrome Forecast
Issued by NWS

Home | Current Version | Previous Version | Text Only | Print | Product List | Glossary Off
Versions: 1 2 3 4 5 6 7 8 9 10 11 12 13 14 15 16 17 18 19 20 21 22 23 24

000
FTUS45 KGGW 241700
TAFGDV
TAF
KGDV 241720Z 2418/2518 21008KT P6SM VCSH FEW030 OVC045
     FM250000 VRB05KT 6SM -SHSNRA OVC045
     FM250300 34007KT 5SM -SN OVC030
     FM250600 36010KT P6SM VCSH OVC015
      AMD LTD TO CLD VIS AND WIND=

USA.gov is the U.S. government's official web portal to all federal, state and local government web resources and services.